Vernant Park, Alabama
Current Conditions -  °F | °C
As of 5:15 AM on Thursday 18 Dec 2014 (Local Time) from KJKA Reporting Station
Clear Clear  
Wind Chill: 40°   Ceiling: Unl
Heat Index: 42°   Visibility: 10mi
Dew Point: 40°   Wind: 5mph
Humidity: 90%   Direction: 20°NNE
Pressure: 30.19"   Gusts: NA
Location:  30.3794°N, 87.7151°W
Report Text: KJKA 181115Z AUTO 02004KT 10SM CLR 06/04 A3019 RMK AO2 T00580042
Loading
Personal Weather Stations






























Interactive Weather Map New forecast layout! Learn more

10-Day Weather Forecast

Advertisements
Track Severe Weather on mobile